Time;durP1;ratioP1;P1;durP2;ratioP2;P2;SDS_P1;SDS_P2;PMS_P1;PMS_P2;Temp;Humidity;BMP_temperature;BMP_pressure;BME280_temperature;BME280_humidity;BME280_pressure;Samples;Min_cycle;Max_cycle;Signal;HPM_P1;HPM_P2
2023/08/29 00:01:55;;;;;;;3.35;2.80;;;13.80;99.90;;;;;;6190430;23;20154;-75
2023/08/29 00:04:21;;;;;;;5.03;3.10;;;13.80;99.90;;;;;;6190732;23;20710;-75
2023/08/29 00:06:47;;;;;;;3.03;2.83;;;13.80;99.90;;;;;;6190777;23;20545;-75
2023/08/29 00:09:12;;;;;;;3.35;2.63;;;13.80;99.90;;;;;;6190302;23;20158;-75
2023/08/29 00:11:38;;;;;;;2.80;2.60;;;13.80;99.90;;;;;;6190656;23;20173;-75
2023/08/29 00:14:03;;;;;;;2.95;2.75;;;13.70;99.90;;;;;;6190360;23;20158;-75
2023/08/29 00:16:29;;;;;;;3.67;2.92;;;13.70;99.90;;;;;;6190167;23;20194;-75
2023/08/29 00:18:54;;;;;;;2.80;2.60;;;13.70;99.90;;;;;;6216653;23;20480;-75
2023/08/29 00:21:20;;;;;;;3.25;2.40;;;13.70;99.90;;;;;;6190625;23;20278;-75
2023/08/29 00:23:48;;;;;;;2.70;2.50;;;13.80;99.90;;;;;;6190228;23;20158;-75
2023/08/29 00:26:14;;;;;;;2.70;2.45;;;13.80;99.90;;;;;;6190343;23;20253;-75
2023/08/29 00:28:40;;;;;;;2.95;2.40;;;13.90;99.90;;;;;;6191153;23;20181;-75
2023/08/29 00:31:06;;;;;;;3.10;2.78;;;13.90;99.90;;;;;;6190508;23;20165;-75
2023/08/29 00:33:32;;;;;;;3.40;2.63;;;13.90;99.90;;;;;;6190147;23;20158;-75
2023/08/29 00:35:57;;;;;;;3.58;2.80;;;13.90;99.90;;;;;;6189869;23;20197;-75
2023/08/29 00:38:23;;;;;;;3.15;2.85;;;13.90;99.90;;;;;;6216622;23;20158;-75
2023/08/29 00:40:48;;;;;;;3.47;2.70;;;13.90;99.90;;;;;;6189971;23;20151;-75
2023/08/29 00:43:14;;;;;;;3.20;2.72;;;13.90;99.90;;;;;;6190049;23;20150;-75
2023/08/29 00:45:40;;;;;;;3.38;3.13;;;14.00;99.90;;;;;;6189967;23;20158;-76
2023/08/29 00:48:08;;;;;;;3.03;2.70;;;14.00;99.90;;;;;;6189911;23;20208;-75
2023/08/29 00:50:34;;;;;;;3.20;2.90;;;14.00;99.90;;;;;;6190288;23;20164;-75
2023/08/29 00:53:03;;;;;;;3.53;2.72;;;14.00;99.90;;;;;;6190795;23;20163;-75
2023/08/29 00:55:30;;;;;;;3.83;2.80;;;14.00;99.90;;;;;;6189516;23;20186;-75
2023/08/29 00:57:57;;;;;;;2.80;2.60;;;14.00;99.90;;;;;;6190107;23;20562;-75
2023/08/29 10:38:15;;;;;;;6.28;2.20;;;20.50;99.90;;;;;;6243071;22;20235;-88
2023/08/29 10:40:42;;;;;;;1.98;1.30;;;20.30;99.90;;;;;;6276030;22;20469;-88
2023/08/29 10:43:21;;;;;;;3.00;1.38;;;20.20;99.90;;;;;;6252014;22;20149;-87
2023/08/29 10:45:55;;;;;;;1.38;1.27;;;20.30;99.90;;;;;;6251647;22;20229;-90
2023/08/29 10:48:43;;;;;;;4.10;1.40;;;20.40;99.90;;;;;;6251384;22;20157;-90
2023/08/29 10:51:22;;;;;;;1.65;1.35;;;19.80;99.90;;;;;;6244916;22;20190;-87
2023/08/29 10:53:53;;;;;;;6.13;1.50;;;20.00;99.90;;;;;;6261226;22;20179;-87
2023/08/29 10:56:24;;;;;;;2.28;1.13;;;20.10;99.90;;;;;;6258376;22;20203;-84
2023/08/29 10:58:50;;;;;;;3.15;1.20;;;20.20;99.90;;;;;;6252120;22;20228;-85
2023/08/29 11:01:28;;;;;;;2.70;1.20;;;20.20;99.90;;;;;;6252093;22;20149;-85
2023/08/29 11:03:57;;;;;;;1.27;1.00;;;20.30;99.90;;;;;;6252210;22;20145;-90
2023/08/29 11:06:24;;;;;;;2.85;1.08;;;20.40;99.90;;;;;;6251297;22;20230;-90
2023/08/29 11:08:50;;;;;;;2.05;1.10;;;20.50;99.90;;;;;;6252122;22;20469;-90
2023/08/29 11:11:21;;;;;;;3.53;1.20;;;20.60;99.90;;;;;;6251866;22;20287;-90
2023/08/29 11:14:13;;;;;;;2.22;1.23;;;20.70;99.90;;;;;;6253138;22;20601;-91
2023/08/29 11:17:14;;;;;;;1.15;1.05;;;21.00;99.90;;;;;;6271446;22;20200;-91
2023/08/29 11:19:41;;;;;;;4.15;1.48;;;21.20;99.90;;;;;;6252278;22;20167;-90
2023/08/29 11:22:08;;;;;;;1.25;1.15;;;21.30;99.90;;;;;;6250970;22;20207;-90
2023/08/29 11:24:34;;;;;;;1.88;1.08;;;21.50;99.30;;;;;;6251824;22;20176;-91
2023/08/29 11:27:00;;;;;;;1.95;1.25;;;21.60;99.20;;;;;;6251067;22;20181;-91
2023/08/29 11:29:35;;;;;;;2.70;1.08;;;21.80;99.30;;;;;;6251635;22;20168;-91
2023/08/29 11:32:00;;;;;;;2.15;1.23;;;21.90;99.00;;;;;;6252180;22;20145;-92
2023/08/29 11:34:28;;;;;;;2.92;1.40;;;22.10;98.80;;;;;;6251560;22;20160;-91
2023/08/29 11:36:54;;;;;;;3.40;1.33;;;22.20;97.70;;;;;;6276558;22;20203;-92
2023/08/29 11:39:24;;;;;;;2.28;1.40;;;22.20;96.60;;;;;;6250824;22;20545;-91
2023/08/29 11:41:50;;;;;;;6.90;1.45;;;22.20;96.80;;;;;;6251991;22;20566;-91
2023/08/29 11:44:17;;;;;;;2.25;0.93;;;21.90;96.90;;;;;;6252245;22;20202;-91
2023/08/29 11:46:45;;;;;;;10.35;1.50;;;21.90;97.40;;;;;;6250823;22;20634;-92
2023/08/29 11:49:15;;;;;;;2.50;1.02;;;22.00;96.40;;;;;;6251102;22;20182;-92
2023/08/29 11:51:41;;;;;;;11.80;2.25;;;21.90;94.60;;;;;;6250936;22;20204;-92
2023/08/29 11:54:41;;;;;;;4.95;1.35;;;21.70;95.40;;;;;;6251558;22;20157;-92
2023/08/29 11:57:07;;;;;;;11.02;2.00;;;21.40;95.10;;;;;;6253793;22;20193;-92
2023/08/29 11:59:34;;;;;;;3.85;1.42;;;21.40;95.00;;;;;;6251481;22;20675;-92
2023/08/29 12:02:00;;;;;;;1.40;1.00;;;21.30;95.40;;;;;;6250884;22;20210;-92
2023/08/29 12:04:29;;;;;;;14.68;2.92;;;21.20;96.10;;;;;;6251133;22;20161;-92
2023/08/29 12:07:12;;;;;;;9.85;1.63;;;21.20;95.30;;;;;;6250877;22;20520;-92
2023/08/29 12:09:42;;;;;;;2.67;1.30;;;21.20;95.60;;;;;;6252126;22;20149;-93
2023/08/29 12:12:33;;;;;;;0.90;0.90;;;21.30;95.90;;;;;;6251416;22;20153;-92
2023/08/29 12:14:59;;;;;;;40.67;5.78;;;21.00;95.00;;;;;;6250832;22;20604;-89
2023/08/29 12:17:40;;;;;;;3.72;1.58;;;20.60;96.00;;;;;;6251035;22;20169;-92
2023/08/29 12:20:14;;;;;;;4.03;1.30;;;20.50;97.10;;;;;;6251770;22;20141;-92
2023/08/29 12:22:50;;;;;;;7.32;1.60;;;20.40;96.90;;;;;;6250755;22;20160;-92
2023/08/29 12:25:18;;;;;;;11.77;1.95;;;20.50;96.90;;;;;;6252276;22;20163;-88
2023/08/29 12:27:44;;;;;;;3.33;1.73;;;20.60;95.70;;;;;;6252946;22;20528;-88
2023/08/29 12:30:14;;;;;;;5.75;2.00;;;20.80;95.80;;;;;;6252178;22;20152;-88
2023/08/29 12:32:40;;;;;;;2.33;1.55;;;21.10;96.20;;;;;;6252182;22;20149;-88
2023/08/29 12:35:06;;;;;;;2.28;1.25;;;21.10;95.20;;;;;;6251776;22;20169;-88
2023/08/29 12:37:35;;;;;;;2.60;1.40;;;21.00;95.40;;;;;;6251849;22;20560;-88
2023/08/29 12:40:05;;;;;;;1.58;1.35;;;21.10;94.90;;;;;;6251419;22;20177;-88
2023/08/29 12:42:31;;;;;;;2.63;1.50;;;21.20;94.70;;;;;;6251172;22;20157;-88
2023/08/29 12:44:57;;;;;;;1.88;1.40;;;21.20;94.50;;;;;;6251198;22;20160;-88
2023/08/29 12:47:23;;;;;;;8.45;1.70;;;21.40;93.40;;;;;;6251858;22;20180;-88
2023/08/29 12:49:48;;;;;;;2.75;1.50;;;21.50;92.80;;;;;;6251795;22;20605;-88
2023/08/29 12:52:14;;;;;;;4.13;1.30;;;21.60;92.50;;;;;;6252057;22;20469;-88
2023/08/29 12:54:42;;;;;;;4.47;1.50;;;21.60;91.50;;;;;;6252524;22;20157;-88
2023/08/29 12:57:08;;;;;;;19.58;2.28;;;21.70;91.70;;;;;;6251765;22;20192;-88
2023/08/29 12:59:34;;;;;;;3.22;1.50;;;21.80;92.30;;;;;;6251728;22;20153;-88
2023/08/29 13:02:00;;;;;;;4.60;1.27;;;22.00;91.00;;;;;;6252002;22;20157;-88
2023/08/29 13:04:25;;;;;;;3.70;1.48;;;22.10;91.70;;;;;;6251724;22;20161;-88
2023/08/29 13:06:51;;;;;;;0.90;0.90;;;22.30;91.10;;;;;;6252110;22;20226;-88
2023/08/29 13:09:32;;;;;;;1.27;1.05;;;22.50;90.00;;;;;;6251233;22;20230;-91
2023/08/29 13:12:25;;;;;;;6.85;1.20;;;22.80;90.30;;;;;;6250742;22;20187;-92
2023/08/29 13:14:51;;;;;;;0.90;0.90;;;23.10;88.70;;;;;;6250076;22;20168;-92
2023/08/29 13:17:23;;;;;;;1.05;1.00;;;22.90;85.40;;;;;;6249774;22;20539;-92
2023/08/29 13:19:49;;;;;;;0.90;0.70;;;22.70;86.60;;;;;;6250132;22;20246;-91
2023/08/29 13:22:15;;;;;;;1.10;1.00;;;22.50;84.30;;;;;;6249908;22;20176;-91
2023/08/29 13:24:42;;;;;;;1.98;1.20;;;22.50;84.70;;;;;;6275735;22;20166;-92
2023/08/29 13:27:08;;;;;;;10.98;1.88;;;22.40;88.20;;;;;;6249681;22;20183;-92
2023/08/29 13:29:34;;;;;;;1.38;1.02;;;22.20;86.90;;;;;;6250066;22;20160;-92
2023/08/29 13:32:00;;;;;;;7.68;1.48;;;21.80;86.70;;;;;;6249929;22;20210;-92
2023/08/29 13:34:26;;;;;;;1.15;1.00;;;21.60;89.60;;;;;;6250490;22;20160;-92
2023/08/29 13:36:52;;;;;;;1.25;1.08;;;21.40;90.50;;;;;;6249888;22;20271;-92
2023/08/29 13:39:18;;;;;;;2.38;1.10;;;21.60;90.40;;;;;;6275389;22;20196;-92
2023/08/29 13:41:44;;;;;;;7.15;1.48;;;22.00;88.60;;;;;;6250763;22;20187;-92
2023/08/29 13:44:10;;;;;;;5.47;1.55;;;21.70;88.90;;;;;;6250892;22;20163;-92
2023/08/29 13:46:36;;;;;;;17.77;2.45;;;21.40;86.90;;;;;;6250522;22;20177;-92
2023/08/29 13:49:02;;;;;;;1.25;1.15;;;21.70;88.90;;;;;;6250780;22;20216;-92
2023/08/29 13:51:27;;;;;;;2.92;1.55;;;22.00;86.90;;;;;;6249861;22;20160;-92
2023/08/29 13:53:53;;;;;;;13.95;2.65;;;22.10;85.40;;;;;;6249837;22;20212;-92
2023/08/29 13:56:19;;;;;;;1.25;0.90;;;21.90;85.00;;;;;;6249703;22;20252;-92
2023/08/29 13:58:45;;;;;;;2.65;1.05;;;21.30;86.80;;;;;;6249747;22;20152;-92
2023/08/29 14:01:12;;;;;;;29.52;5.00;;;20.80;89.00;;;;;;6249795;22;20156;-92
2023/08/29 14:03:37;;;;;;;2.78;1.50;;;20.60;90.20;;;;;;6249779;22;20179;-92
2023/08/29 14:06:03;;;;;;;2.17;1.50;;;20.30;90.30;;;;;;6249981;22;20182;-92
2023/08/29 14:08:30;;;;;;;7.95;2.28;;;20.30;91.30;;;;;;6249920;22;20206;-92
2023/08/29 14:11:04;;;;;;;2.00;1.20;;;20.50;91.20;;;;;;6250498;22;20180;-92
2023/08/29 14:13:33;;;;;;;2.85;1.38;;;20.40;91.30;;;;;;6277131;22;20152;-89
2023/08/29 14:16:03;;;;;;;1.00;1.00;;;20.40;91.50;;;;;;6250760;22;20250;-89
2023/08/29 14:18:29;;;;;;;4.25;1.17;;;20.20;90.80;;;;;;6249648;22;20157;-88
2023/08/29 14:20:55;;;;;;;8.48;1.50;;;19.90;92.10;;;;;;6250256;22;20233;-90
2023/08/29 14:23:20;;;;;;;5.75;1.20;;;20.00;92.40;;;;;;6250620;22;20574;-89
2023/08/29 14:25:46;;;;;;;3.38;1.33;;;20.00;92.80;;;;;;6249538;22;20203;-89
2023/08/29 14:28:12;;;;;;;3.70;1.20;;;20.10;92.40;;;;;;6249653;22;20185;-89
2023/08/29 14:30:43;;;;;;;3.33;1.15;;;20.30;92.40;;;;;;6249406;22;20179;-89
2023/08/29 14:33:10;;;;;;;3.15;1.30;;;20.40;92.40;;;;;;6250272;22;20157;-89
2023/08/29 14:35:36;;;;;;;5.88;1.55;;;20.20;92.70;;;;;;6249350;22;20188;-89
2023/08/29 14:38:01;;;;;;;1.85;1.10;;;20.30;93.50;;;;;;6249940;22;20183;-89
2023/08/29 14:40:27;;;;;;;1.85;1.05;;;20.40;92.20;;;;;;6277321;22;20161;-88
2023/08/29 14:42:53;;;;;;;10.90;1.73;;;20.60;91.80;;;;;;6250495;22;20199;-89
2023/08/29 14:45:18;;;;;;;1.45;1.10;;;20.60;92.20;;;;;;6250570;22;20145;-89
2023/08/29 14:47:44;;;;;;;8.05;1.67;;;20.40;93.00;;;;;;6250922;22;20184;-89
2023/08/29 14:50:11;;;;;;;1.55;1.15;;;20.20;92.90;;;;;;6249581;22;20160;-89
2023/08/29 14:52:37;;;;;;;1.80;1.20;;;20.00;93.80;;;;;;6249633;22;20153;-88
2023/08/29 14:55:04;;;;;;;1.60;1.10;;;19.50;93.90;;;;;;6249879;22;20154;-88
2023/08/29 14:57:30;;;;;;;2.05;1.10;;;19.20;94.70;;;;;;6249378;22;20185;-88
2023/08/29 14:59:57;;;;;;;2.17;1.30;;;18.90;94.90;;;;;;6249391;22;20153;-88
2023/08/29 15:02:23;;;;;;;1.65;1.20;;;18.80;95.90;;;;;;6251988;22;20465;-88
2023/08/29 15:04:49;;;;;;;6.13;2.22;;;18.90;96.20;;;;;;6252506;22;20157;-88
2023/08/29 15:07:16;;;;;;;2.35;1.60;;;19.00;96.40;;;;;;6251999;22;20181;-88
2023/08/29 15:09:42;;;;;;;1.48;1.17;;;19.00;96.00;;;;;;6252598;22;20189;-88
2023/08/29 15:12:08;;;;;;;2.38;1.20;;;18.90;96.00;;;;;;6251785;22;20590;-88
2023/08/29 15:14:34;;;;;;;0.90;0.90;;;18.90;96.30;;;;;;6251751;22;20157;-88
2023/08/29 15:17:01;;;;;;;5.78;1.30;;;19.00;95.60;;;;;;6251738;22;20251;-88
2023/08/29 15:19:26;;;;;;;1.20;1.10;;;19.10;95.30;;;;;;6257585;22;20159;-88
2023/08/29 15:21:52;;;;;;;3.60;1.20;;;19.00;94.60;;;;;;6249315;22;20153;-89
2023/08/29 15:24:18;;;;;;;1.10;1.10;;;19.10;94.60;;;;;;6250317;22;20203;-88
2023/08/29 15:26:44;;;;;;;4.03;1.65;;;19.00;94.90;;;;;;6249986;22;20181;-88
2023/08/29 15:29:10;;;;;;;2.05;1.45;;;18.90;94.80;;;;;;6250093;22;20535;-88
2023/08/29 15:31:36;;;;;;;2.40;1.15;;;19.00;95.50;;;;;;6251159;22;20152;-89
2023/08/29 15:34:01;;;;;;;1.38;1.27;;;19.00;96.30;;;;;;6251426;22;20157;-89
2023/08/29 15:36:27;;;;;;;1.85;1.73;;;19.20;95.90;;;;;;6250987;22;20188;-89
2023/08/29 15:38:53;;;;;;;1.70;1.60;;;19.30;95.60;;;;;;6250997;22;20180;-88
2023/08/29 15:41:18;;;;;;;1.90;1.70;;;19.10;95.90;;;;;;6276685;22;20211;-88
2023/08/29 15:43:46;;;;;;;13.02;4.80;;;19.20;96.50;;;;;;6252281;22;20514;-88
2023/08/29 15:46:12;;;;;;;8.85;5.32;;;19.20;96.10;;;;;;6252005;22;20227;-89
2023/08/29 15:48:38;;;;;;;4.95;2.58;;;19.10;96.60;;;;;;6251509;22;20157;-89
2023/08/29 15:51:06;;;;;;;1.77;1.38;;;19.30;96.90;;;;;;6251294;22;20168;-89
2023/08/29 15:53:36;;;;;;;1.88;1.77;;;19.40;97.00;;;;;;6251596;22;20157;-89
2023/08/29 15:56:02;;;;;;;1.65;1.50;;;19.40;96.60;;;;;;6251223;22;20238;-89
2023/08/29 15:58:28;;;;;;;5.35;1.40;;;19.30;96.40;;;;;;6251078;22;20149;-89
2023/08/29 16:00:54;;;;;;;23.02;14.65;;;19.30;96.90;;;;;;6250827;22;20163;-88
2023/08/29 16:03:21;;;;;;;6.95;3.90;;;19.20;96.30;;;;;;6251334;22;20153;-89
2023/08/29 16:05:49;;;;;;;34.08;21.95;;;19.20;96.20;;;;;;6251190;22;20239;-89
2023/08/29 16:08:14;;;;;;;17.65;13.77;;;19.10;95.90;;;;;;6251922;22;20157;-89
2023/08/29 16:10:40;;;;;;;6.93;3.78;;;19.10;95.70;;;;;;6250773;22;20494;-89
2023/08/29 16:13:15;;;;;;;1.50;1.40;;;19.10;95.90;;;;;;6252057;22;20210;-89
2023/08/29 16:15:41;;;;;;;1.40;1.30;;;19.00;95.30;;;;;;6251236;22;20188;-89
2023/08/29 16:18:06;;;;;;;3.35;1.20;;;19.00;95.50;;;;;;6251803;22;20454;-89
2023/08/29 16:20:32;;;;;;;1.05;1.05;;;19.00;95.50;;;;;;6251151;22;20153;-91
2023/08/29 16:22:58;;;;;;;1.40;1.30;;;18.90;95.90;;;;;;6250667;22;20207;-91
2023/08/29 16:25:27;;;;;;;4.90;2.90;;;18.90;96.10;;;;;;6251006;22;20206;-89
2023/08/29 16:27:56;;;;;;;4.03;2.15;;;18.90;96.40;;;;;;6252051;22;20210;-92
2023/08/29 16:30:22;;;;;;;2.60;1.48;;;18.80;96.50;;;;;;6250567;22;20202;-92
2023/08/29 16:32:48;;;;;;;2.25;1.13;;;18.80;97.20;;;;;;6250954;22;20153;-92
2023/08/29 16:35:13;;;;;;;1.48;1.20;;;18.80;97.50;;;;;;6250776;22;20164;-93
2023/08/29 16:37:39;;;;;;;3.55;1.23;;;18.70;97.20;;;;;;6250825;22;20275;-92
2023/08/29 16:40:08;;;;;;;1.38;1.00;;;18.70;97.40;;;;;;6276221;22;20613;-92
2023/08/29 16:42:35;;;;;;;2.83;1.30;;;18.70;97.00;;;;;;6250527;22;20153;-92
2023/08/29 16:45:03;;;;;;;1.58;1.33;;;18.70;96.80;;;;;;6250722;22;20196;-92
2023/08/29 16:47:30;;;;;;;1.05;1.00;;;18.60;96.80;;;;;;6250250;22;20181;-92
2023/08/29 16:49:56;;;;;;;2.25;1.20;;;18.60;96.90;;;;;;6250435;22;20161;-91
2023/08/29 16:52:22;;;;;;;1.20;1.10;;;18.60;97.10;;;;;;6250263;22;20282;-91
2023/08/29 16:54:47;;;;;;;1.52;1.42;;;18.60;97.00;;;;;;6250767;22;20164;-91
2023/08/29 16:57:13;;;;;;;1.00;1.00;;;18.50;96.50;;;;;;6250898;22;20200;-91
2023/08/29 16:59:53;;;;;;;1.30;1.20;;;18.50;96.80;;;;;;6250751;22;20219;-92
2023/08/29 17:02:19;;;;;;;1.45;1.17;;;18.40;96.80;;;;;;6251501;22;20148;-92
2023/08/29 17:04:46;;;;;;;1.33;1.23;;;18.40;97.60;;;;;;6250767;22;20493;-91
2023/08/29 17:07:12;;;;;;;1.13;1.10;;;18.30;97.90;;;;;;6250895;22;20248;-91
2023/08/29 17:09:37;;;;;;;2.58;1.17;;;18.20;98.40;;;;;;6250274;22;20188;-91
2023/08/29 17:12:03;;;;;;;1.30;1.20;;;18.30;98.60;;;;;;6251115;22;20157;-91
2023/08/29 17:14:29;;;;;;;1.75;1.23;;;18.20;98.70;;;;;;6250768;22;20160;-91
2023/08/29 17:16:55;;;;;;;1.40;1.30;;;18.20;98.90;;;;;;6250415;22;20193;-91
2023/08/29 17:19:20;;;;;;;2.20;1.20;;;18.10;99.40;;;;;;6250078;22;20153;-91
2023/08/29 17:21:46;;;;;;;2.63;1.30;;;18.00;99.70;;;;;;6250209;22;20153;-92
2023/08/29 17:24:12;;;;;;;2.80;1.27;;;17.90;99.40;;;;;;6250430;22;20153;-91
2023/08/29 17:26:37;;;;;;;3.75;1.42;;;17.90;99.90;;;;;;6250003;22;20202;-91
2023/08/29 17:29:03;;;;;;;1.70;1.20;;;17.80;99.90;;;;;;6250364;22;20161;-91
2023/08/29 17:31:29;;;;;;;1.00;1.00;;;17.70;99.90;;;;;;6250245;22;20636;-91
2023/08/29 17:33:55;;;;;;;1.08;1.08;;;17.70;99.70;;;;;;6250182;22;20157;-91
2023/08/29 17:36:21;;;;;;;1.98;1.10;;;17.70;99.80;;;;;;6250970;22;20515;-91
2023/08/29 17:38:46;;;;;;;1.30;1.20;;;17.60;99.90;;;;;;6249996;22;20226;-91
2023/08/29 17:41:12;;;;;;;1.20;1.20;;;17.50;99.90;;;;;;6275591;22;20187;-91
2023/08/29 17:43:38;;;;;;;2.75;1.30;;;17.50;99.90;;;;;;6250623;22;20183;-91
2023/08/29 17:46:03;;;;;;;1.63;1.23;;;17.50;99.90;;;;;;6250196;22;20178;-91
2023/08/29 17:48:29;;;;;;;1.10;1.10;;;17.40;99.90;;;;;;6250890;22;20157;-91
2023/08/29 17:50:59;;;;;;;3.47;1.30;;;17.40;99.90;;;;;;6251028;22;20243;-91
2023/08/29 17:53:25;;;;;;;1.65;1.30;;;17.40;99.90;;;;;;6250101;22;20161;-91
2023/08/29 17:56:23;;;;;;;1.92;1.40;;;17.30;99.90;;;;;;6250403;22;20188;-94
2023/08/29 17:59:01;;;;;;;1.88;1.20;;;17.20;99.90;;;;;;6250158;22;20148;-93
2023/08/29 18:01:33;;;;;;;1.30;1.20;;;17.10;99.90;;;;;;6249230;22;20160;-93
2023/08/29 18:03:58;;;;;;;3.05;1.25;;;17.00;99.90;;;;;;6250165;22;20148;-92
2023/08/29 18:06:25;;;;;;;1.30;1.20;;;17.00;99.90;;;;;;6249597;22;20191;-93
2023/08/29 18:08:55;;;;;;;1.30;1.27;;;16.90;99.90;;;;;;6250303;22;20263;-93
2023/08/29 18:11:21;;;;;;;3.67;1.40;;;16.80;99.90;;;;;;6250921;22;20243;-94
2023/08/29 18:13:47;;;;;;;1.42;1.33;;;16.70;99.90;;;;;;6251537;22;20184;-94
2023/08/29 18:16:25;;;;;;;1.58;1.48;;;16.70;99.90;;;;;;6252071;22;20195;-94
2023/08/29 18:18:56;;;;;;;1.60;1.50;;;16.60;99.90;;;;;;6250809;22;20145;-93
2023/08/29 18:21:21;;;;;;;1.80;1.20;;;16.50;99.90;;;;;;6251068;22;20455;-93
2023/08/29 18:23:47;;;;;;;1.75;1.10;;;16.50;99.90;;;;;;6249987;22;20164;-93
2023/08/29 18:26:13;;;;;;;1.20;1.20;;;16.50;99.90;;;;;;6249784;22;20184;-94
2023/08/29 18:28:44;;;;;;;1.65;1.35;;;16.40;99.90;;;;;;6250053;22;20495;-93
2023/08/29 18:31:10;;;;;;;1.20;1.20;;;16.40;99.90;;;;;;6214578;22;20668;-93
2023/08/29 18:33:46;;;;;;;1.20;1.10;;;16.30;99.90;;;;;;6250210;22;20185;-93
2023/08/29 18:36:20;;;;;;;1.65;1.40;;;16.30;99.90;;;;;;6250049;22;20577;-93
2023/08/29 18:39:04;;;;;;;1.42;1.30;;;16.30;99.90;;;;;;6249896;22;20218;-93
2023/08/29 18:42:09;;;;;;;1.50;1.40;;;16.30;99.90;;;;;;6249991;22;20242;-93
2023/08/29 18:47:57;;;;;;;2.45;1.30;;;16.20;99.90;;;;;;6278499;22;20239;-78
2023/08/29 18:50:26;;;;;;;4.35;1.60;;;16.20;99.90;;;;;;6256719;22;20490;-80
2023/08/29 18:52:52;;;;;;;3.38;1.58;;;16.20;99.90;;;;;;6256933;22;20157;-78
2023/08/29 18:55:19;;;;;;;1.40;1.30;;;16.20;99.90;;;;;;6254068;22;20184;-79
2023/08/29 18:57:45;;;;;;;2.38;1.40;;;16.20;99.90;;;;;;6254746;22;20264;-78
2023/08/29 19:00:12;;;;;;;1.50;1.40;;;16.20;99.90;;;;;;6250599;22;20153;-77
2023/08/29 19:02:42;;;;;;;2.92;1.60;;;16.10;99.90;;;;;;6250227;22;20220;-77
2023/08/29 19:05:15;;;;;;;1.60;1.50;;;16.10;99.90;;;;;;6251433;22;20216;-78
2023/08/29 19:07:43;;;;;;;2.33;1.75;;;16.00;99.90;;;;;;6251965;22;20169;-77
2023/08/29 19:10:09;;;;;;;2.20;1.90;;;16.00;99.90;;;;;;6276912;22;20671;-77
2023/08/29 19:12:35;;;;;;;3.20;1.85;;;15.90;99.90;;;;;;6251930;22;20163;-80
2023/08/29 19:15:08;;;;;;;2.75;1.85;;;15.90;99.90;;;;;;6254250;22;20156;-81
2023/08/29 19:17:38;;;;;;;1.75;1.65;;;15.80;99.90;;;;;;6253524;22;20645;-81
2023/08/29 19:20:04;;;;;;;2.15;1.80;;;15.80;99.90;;;;;;6281466;22;20137;-78
2023/08/29 19:22:47;;;;;;;1.98;1.83;;;15.70;99.90;;;;;;6251303;22;20153;-77
2023/08/29 19:25:14;;;;;;;2.35;1.80;;;15.60;99.90;;;;;;6276716;22;20152;-77
2023/08/29 19:27:46;;;;;;;3.15;1.50;;;15.70;99.90;;;;;;6251497;22;20248;-77
2023/08/29 19:33:56;;;;;;;1.67;1.58;;;15.70;99.90;;;;;;6278404;22;20138;-77
2023/08/29 19:36:22;;;;;;;3.35;1.60;;;15.80;99.90;;;;;;6250975;22;20638;-77
2023/08/29 19:38:47;;;;;;;1.40;1.30;;;15.80;99.90;;;;;;6251637;22;20163;-77
2023/08/29 19:41:16;;;;;;;2.58;1.40;;;15.90;99.90;;;;;;6252827;22;20175;-81
2023/08/29 19:43:43;;;;;;;2.53;1.55;;;15.80;99.90;;;;;;6280250;22;20173;-81
2023/08/29 19:46:08;;;;;;;3.05;1.52;;;15.70;99.90;;;;;;6254418;22;20173;-80
2023/08/29 19:48:34;;;;;;;7.50;1.73;;;15.60;99.90;;;;;;6258275;22;20175;-79
2023/08/29 19:50:59;;;;;;;2.47;1.85;;;15.60;99.90;;;;;;6259024;22;20186;-79
2023/08/29 19:53:27;;;;;;;6.25;1.67;;;15.60;99.90;;;;;;6259133;22;20163;-79
2023/08/29 19:55:53;;;;;;;4.55;1.60;;;15.60;99.90;;;;;;6260206;22;20505;-79
2023/08/29 19:58:19;;;;;;;2.97;1.52;;;15.70;99.90;;;;;;6259189;22;20148;-79
2023/08/29 20:00:51;;;;;;;2.55;1.52;;;15.70;99.90;;;;;;6259520;22;20164;-79
2023/08/29 20:03:20;;;;;;;7.88;1.90;;;15.70;99.90;;;;;;6260107;22;20149;-79
2023/08/29 20:05:45;;;;;;;1.95;1.85;;;15.80;99.90;;;;;;6260082;22;20222;-79
2023/08/29 20:08:14;;;;;;;2.03;1.70;;;15.70;99.90;;;;;;6258694;22;20157;-79
2023/08/29 20:10:40;;;;;;;5.65;1.90;;;15.60;99.90;;;;;;6259145;22;20180;-79
2023/08/29 20:13:07;;;;;;;3.88;1.75;;;15.60;99.90;;;;;;6258432;22;20149;-79
2023/08/29 20:15:32;;;;;;;3.30;1.75;;;15.60;99.90;;;;;;6258378;22;20240;-78
2023/08/29 20:17:59;;;;;;;3.15;1.63;;;15.70;99.90;;;;;;6259992;22;20153;-78
2023/08/29 20:20:25;;;;;;;2.97;1.80;;;15.70;99.90;;;;;;6258255;22;20582;-79
2023/08/29 20:22:51;;;;;;;3.80;1.73;;;15.70;99.90;;;;;;6259834;22;20227;-79
2023/08/29 20:25:17;;;;;;;6.25;2.10;;;15.40;99.90;;;;;;6259811;22;20145;-79
2023/08/29 20:27:43;;;;;;;3.28;2.35;;;15.30;99.90;;;;;;6258867;22;20246;-79
2023/08/29 20:30:09;;;;;;;4.85;2.30;;;15.30;99.90;;;;;;6260710;22;20574;-79
2023/08/29 20:32:35;;;;;;;2.88;2.38;;;15.30;99.90;;;;;;6285088;22;20181;-79
2023/08/29 20:35:01;;;;;;;3.53;2.40;;;15.20;99.90;;;;;;6259589;22;20153;-79
2023/08/29 20:37:27;;;;;;;4.28;2.60;;;15.30;99.90;;;;;;6260318;22;20196;-78
2023/08/29 20:39:53;;;;;;;2.60;2.40;;;15.30;99.90;;;;;;6259739;22;20149;-78
2023/08/29 20:42:20;;;;;;;3.65;2.10;;;15.30;99.90;;;;;;6259370;22;20156;-78
2023/08/29 20:44:45;;;;;;;2.92;2.60;;;15.30;99.90;;;;;;6277978;22;20171;-77
2023/08/29 20:47:12;;;;;;;4.45;2.33;;;15.30;99.90;;;;;;6250459;22;20192;-77
2023/08/29 20:49:38;;;;;;;4.43;2.50;;;15.20;99.90;;;;;;6250429;22;20499;-77
2023/08/29 20:52:08;;;;;;;2.78;2.53;;;15.20;99.90;;;;;;6250453;22;20153;-77
2023/08/29 20:54:34;;;;;;;2.92;2.30;;;15.10;99.90;;;;;;6250470;22;20195;-77
2023/08/29 20:57:00;;;;;;;2.00;1.90;;;15.10;99.90;;;;;;6250996;22;20192;-77
2023/08/29 20:59:26;;;;;;;3.95;2.50;;;15.00;99.90;;;;;;6250184;22;20164;-77
2023/08/29 21:01:51;;;;;;;3.42;2.10;;;15.00;99.90;;;;;;6276874;22;20144;-77
2023/08/29 21:04:17;;;;;;;3.88;2.20;;;14.90;99.90;;;;;;6250642;22;20147;-77
2023/08/29 21:06:42;;;;;;;4.82;2.30;;;14.80;99.90;;;;;;6250321;22;20208;-77
2023/08/29 21:09:10;;;;;;;4.63;2.15;;;14.80;99.90;;;;;;6250371;22;20242;-77
2023/08/29 21:11:36;;;;;;;2.10;1.90;;;14.70;99.90;;;;;;6250569;22;20161;-77
2023/08/29 21:14:02;;;;;;;3.40;2.10;;;14.60;99.90;;;;;;6250614;22;20156;-77
2023/08/29 21:16:28;;;;;;;2.95;1.90;;;14.60;99.90;;;;;;6250056;22;20196;-77
2023/08/29 21:18:54;;;;;;;2.47;2.13;;;14.60;99.90;;;;;;6277161;22;20223;-77
2023/08/29 21:21:21;;;;;;;3.08;1.80;;;14.50;99.90;;;;;;6250095;22;20192;-77
2023/08/29 21:23:48;;;;;;;1.90;1.70;;;14.50;99.90;;;;;;6277237;22;20156;-77
2023/08/29 21:26:14;;;;;;;2.30;2.10;;;14.50;99.90;;;;;;6276958;22;20172;-77
2023/08/29 21:28:41;;;;;;;1.92;1.83;;;14.50;99.90;;;;;;6250910;22;20161;-77
2023/08/29 21:31:07;;;;;;;5.57;2.00;;;14.50;99.90;;;;;;6277085;22;20283;-77
2023/08/29 21:33:34;;;;;;;5.13;2.22;;;14.50;99.90;;;;;;6250081;22;20149;-77
2023/08/29 21:36:00;;;;;;;2.90;1.98;;;14.40;99.90;;;;;;6249730;22;20212;-77
2023/08/29 21:38:28;;;;;;;2.22;2.10;;;14.40;99.90;;;;;;6250343;22;20145;-78
2023/08/29 21:40:54;;;;;;;2.40;2.20;;;14.30;99.90;;;;;;6250474;22;20156;-78
2023/08/29 21:43:23;;;;;;;3.72;2.50;;;14.20;99.90;;;;;;6250109;22;20145;-77
2023/08/29 21:45:59;;;;;;;4.72;2.40;;;14.20;99.90;;;;;;6250216;22;20207;-77
2023/08/29 21:48:28;;;;;;;4.90;2.40;;;14.10;99.90;;;;;;6250260;22;20191;-77
2023/08/29 21:50:53;;;;;;;3.83;2.10;;;14.00;99.90;;;;;;6251043;22;20153;-77
2023/08/29 21:53:19;;;;;;;4.93;2.28;;;14.10;99.90;;;;;;6250019;22;20163;-77
2023/08/29 21:55:45;;;;;;;3.28;2.20;;;14.10;99.90;;;;;;6249854;22;20203;-77
2023/08/29 21:58:10;;;;;;;3.72;2.30;;;14.00;99.90;;;;;;6250328;22;20582;-77
2023/08/29 22:00:37;;;;;;;3.45;2.15;;;14.00;99.90;;;;;;6277257;22;20152;-77
2023/08/29 22:03:05;;;;;;;2.15;1.88;;;14.00;99.90;;;;;;6249961;22;20163;-77
2023/08/29 22:05:32;;;;;;;4.20;2.17;;;14.00;99.90;;;;;;6276919;22;20149;-78
2023/08/29 22:07:58;;;;;;;2.97;2.10;;;14.00;99.90;;;;;;6249948;22;20149;-77
2023/08/29 22:10:23;;;;;;;3.85;2.28;;;13.90;99.90;;;;;;6250865;22;20161;-77
2023/08/29 22:12:50;;;;;;;2.38;2.20;;;13.90;99.90;;;;;;6250267;22;20218;-77
2023/08/29 22:15:16;;;;;;;3.05;2.45;;;13.90;99.90;;;;;;6249742;22;20152;-77
2023/08/29 22:17:43;;;;;;;5.88;2.88;;;13.90;99.90;;;;;;6249575;22;20219;-77
2023/08/29 22:20:10;;;;;;;2.53;2.25;;;13.80;99.90;;;;;;6249753;22;20593;-77
2023/08/29 22:22:35;;;;;;;7.47;2.88;;;13.80;99.90;;;;;;6249629;22;20153;-77
2023/08/29 22:25:02;;;;;;;4.53;2.38;;;13.80;99.90;;;;;;6249959;22;20222;-77
2023/08/29 22:27:27;;;;;;;2.47;2.22;;;13.70;99.90;;;;;;6277054;22;20175;-77
2023/08/29 22:29:53;;;;;;;3.00;2.22;;;13.80;99.90;;;;;;6249678;22;20156;-77
2023/08/29 22:32:19;;;;;;;4.03;2.30;;;13.90;99.90;;;;;;6250145;22;20243;-77
2023/08/29 22:34:44;;;;;;;3.55;2.20;;;13.90;99.90;;;;;;6249694;22;20245;-77